sensor_id;sensor_type;location;lat;lon;timestamp;P1;durP1;ratioP1;P2;durP2;ratioP2
72920;SDS011;61064;51.654;5.476;2023-02-16T00:00:10;43.45;;;20.67;;
72920;SDS011;61064;51.654;5.476;2023-02-16T00:02:48;44.72;;;21.10;;
72920;SDS011;61064;51.654;5.476;2023-02-16T00:05:34;43.83;;;21.30;;
72920;SDS011;61064;51.654;5.476;2023-02-16T00:07:59;44.28;;;20.63;;
72920;SDS011;61064;51.654;5.476;2023-02-16T00:10:27;46.70;;;21.83;;
72920;SDS011;61064;51.654;5.476;2023-02-16T00:12:55;45.60;;;21.00;;
72920;SDS011;61064;51.654;5.476;2023-02-16T00:15:39;46.00;;;21.85;;
72920;SDS011;61064;51.654;5.476;2023-02-16T00:18:38;45.43;;;21.07;;
72920;SDS011;61064;51.654;5.476;2023-02-16T00:20:56;47.05;;;21.25;;
72920;SDS011;61064;51.654;5.476;2023-02-16T00:23:22;43.40;;;21.07;;
72920;SDS011;61064;51.654;5.476;2023-02-16T00:25:47;43.73;;;20.47;;
72920;SDS011;61064;51.654;5.476;2023-02-16T00:28:17;43.38;;;20.08;;
72920;SDS011;61064;51.654;5.476;2023-02-16T00:30:44;45.50;;;20.63;;
72920;SDS011;61064;51.654;5.476;2023-02-16T00:33:14;44.42;;;21.05;;
72920;SDS011;61064;51.654;5.476;2023-02-16T00:35:41;44.30;;;21.27;;
72920;SDS011;61064;51.654;5.476;2023-02-16T00:38:07;42.47;;;20.40;;
72920;SDS011;61064;51.654;5.476;2023-02-16T00:40:32;46.33;;;20.63;;
72920;SDS011;61064;51.654;5.476;2023-02-16T00:42:59;46.58;;;21.83;;
72920;SDS011;61064;51.654;5.476;2023-02-16T00:45:24;45.22;;;21.88;;
72920;SDS011;61064;51.654;5.476;2023-02-16T00:47:50;44.80;;;20.83;;
72920;SDS011;61064;51.654;5.476;2023-02-16T00:50:18;44.05;;;20.73;;
72920;SDS011;61064;51.654;5.476;2023-02-16T00:52:43;46.30;;;21.20;;
72920;SDS011;61064;51.654;5.476;2023-02-16T00:55:11;43.70;;;20.57;;
72920;SDS011;61064;51.654;5.476;2023-02-16T00:57:43;42.83;;;20.63;;
72920;SDS011;61064;51.654;5.476;2023-02-16T01:02:55;42.13;;;21.00;;
72920;SDS011;61064;51.654;5.476;2023-02-16T01:05:23;47.55;;;20.98;;
72920;SDS011;61064;51.654;5.476;2023-02-16T01:07:48;48.97;;;22.27;;
72920;SDS011;61064;51.654;5.476;2023-02-16T01:10:33;42.58;;;20.50;;
72920;SDS011;61064;51.654;5.476;2023-02-16T01:13:45;41.10;;;20.50;;
72920;SDS011;61064;51.654;5.476;2023-02-16T01:16:14;43.97;;;20.38;;
72920;SDS011;61064;51.654;5.476;2023-02-16T01:18:45;44.53;;;20.00;;
72920;SDS011;61064;51.654;5.476;2023-02-16T01:21:11;45.10;;;21.00;;
72920;SDS011;61064;51.654;5.476;2023-02-16T01:23:37;44.60;;;21.25;;
72920;SDS011;61064;51.654;5.476;2023-02-16T01:26:03;45.93;;;20.47;;
72920;SDS011;61064;51.654;5.476;2023-02-16T01:28:29;44.90;;;20.67;;
72920;SDS011;61064;51.654;5.476;2023-02-16T01:30:58;44.30;;;21.30;;
72920;SDS011;61064;51.654;5.476;2023-02-16T01:33:23;44.73;;;20.70;;
72920;SDS011;61064;51.654;5.476;2023-02-16T01:35:49;45.50;;;20.17;;
72920;SDS011;61064;51.654;5.476;2023-02-16T01:38:17;44.25;;;20.88;;
72920;SDS011;61064;51.654;5.476;2023-02-16T01:40:45;42.13;;;21.17;;
72920;SDS011;61064;51.654;5.476;2023-02-16T01:43:29;46.30;;;21.55;;
72920;SDS011;61064;51.654;5.476;2023-02-16T01:46:06;43.30;;;21.48;;
72920;SDS011;61064;51.654;5.476;2023-02-16T01:48:38;45.72;;;20.88;;
72920;SDS011;61064;51.654;5.476;2023-02-16T01:53:51;45.42;;;21.30;;
72920;SDS011;61064;51.654;5.476;2023-02-16T01:56:39;41.92;;;20.60;;
72920;SDS011;61064;51.654;5.476;2023-02-16T01:59:13;45.83;;;20.90;;
72920;SDS011;61064;51.654;5.476;2023-02-16T02:01:57;43.53;;;21.13;;
72920;SDS011;61064;51.654;5.476;2023-02-16T02:04:30;43.97;;;21.48;;
72920;SDS011;61064;51.654;5.476;2023-02-16T02:07:36;46.65;;;22.08;;
72920;SDS011;61064;51.654;5.476;2023-02-16T02:10:19;48.25;;;21.50;;
72920;SDS011;61064;51.654;5.476;2023-02-16T02:12:54;46.80;;;21.42;;
72920;SDS011;61064;51.654;5.476;2023-02-16T02:15:28;43.13;;;20.80;;
72920;SDS011;61064;51.654;5.476;2023-02-16T02:17:56;44.35;;;20.70;;
72920;SDS011;61064;51.654;5.476;2023-02-16T02:20:26;44.47;;;21.40;;
72920;SDS011;61064;51.654;5.476;2023-02-16T02:26:14;48.28;;;21.15;;
72920;SDS011;61064;51.654;5.476;2023-02-16T02:36:55;54.75;;;22.25;;
72920;SDS011;61064;51.654;5.476;2023-02-16T02:39:34;46.47;;;21.63;;
72920;SDS011;61064;51.654;5.476;2023-02-16T02:42:35;45.42;;;21.23;;
72920;SDS011;61064;51.654;5.476;2023-02-16T02:45:10;49.95;;;22.23;;
72920;SDS011;61064;51.654;5.476;2023-02-16T02:47:42;45.43;;;21.50;;
72920;SDS011;61064;51.654;5.476;2023-02-16T02:53:35;43.00;;;21.23;;
72920;SDS011;61064;51.654;5.476;2023-02-16T02:56:08;46.42;;;21.75;;
72920;SDS011;61064;51.654;5.476;2023-02-16T02:59:00;44.45;;;21.10;;
72920;SDS011;61064;51.654;5.476;2023-02-16T03:01:49;51.23;;;22.60;;
72920;SDS011;61064;51.654;5.476;2023-02-16T03:04:19;50.38;;;22.75;;
72920;SDS011;61064;51.654;5.476;2023-02-16T03:06:50;47.15;;;22.23;;
72920;SDS011;61064;51.654;5.476;2023-02-16T03:09:18;47.38;;;21.33;;
72920;SDS011;61064;51.654;5.476;2023-02-16T03:11:44;46.78;;;22.20;;
72920;SDS011;61064;51.654;5.476;2023-02-16T03:14:32;46.57;;;22.20;;
72920;SDS011;61064;51.654;5.476;2023-02-16T03:17:06;53.33;;;23.05;;
72920;SDS011;61064;51.654;5.476;2023-02-16T03:19:53;46.22;;;21.60;;
72920;SDS011;61064;51.654;5.476;2023-02-16T03:22:39;50.00;;;23.25;;
72920;SDS011;61064;51.654;5.476;2023-02-16T03:25:24;51.05;;;22.77;;
72920;SDS011;61064;51.654;5.476;2023-02-16T03:28:12;45.53;;;20.90;;
72920;SDS011;61064;51.654;5.476;2023-02-16T03:30:57;43.55;;;21.65;;
72920;SDS011;61064;51.654;5.476;2023-02-16T03:33:25;53.20;;;23.30;;
72920;SDS011;61064;51.654;5.476;2023-02-16T03:35:52;48.95;;;23.15;;
72920;SDS011;61064;51.654;5.476;2023-02-16T03:38:18;47.33;;;22.40;;
72920;SDS011;61064;51.654;5.476;2023-02-16T03:40:44;49.72;;;23.10;;
72920;SDS011;61064;51.654;5.476;2023-02-16T03:43:13;49.50;;;22.23;;
72920;SDS011;61064;51.654;5.476;2023-02-16T03:45:38;47.10;;;21.47;;
72920;SDS011;61064;51.654;5.476;2023-02-16T03:48:06;50.53;;;22.45;;
72920;SDS011;61064;51.654;5.476;2023-02-16T03:50:32;47.22;;;22.45;;
72920;SDS011;61064;51.654;5.476;2023-02-16T03:52:57;52.33;;;22.73;;
72920;SDS011;61064;51.654;5.476;2023-02-16T03:55:32;48.88;;;22.83;;
72920;SDS011;61064;51.654;5.476;2023-02-16T03:58:02;49.10;;;22.33;;
72920;SDS011;61064;51.654;5.476;2023-02-16T04:00:29;46.07;;;22.17;;
72920;SDS011;61064;51.654;5.476;2023-02-16T04:02:55;48.03;;;22.65;;
72920;SDS011;61064;51.654;5.476;2023-02-16T04:05:20;49.23;;;23.23;;
72920;SDS011;61064;51.654;5.476;2023-02-16T04:07:45;48.80;;;22.40;;
72920;SDS011;61064;51.654;5.476;2023-02-16T04:10:11;50.80;;;22.52;;
72920;SDS011;61064;51.654;5.476;2023-02-16T04:12:36;52.83;;;23.23;;
72920;SDS011;61064;51.654;5.476;2023-02-16T04:15:06;50.13;;;22.87;;
72920;SDS011;61064;51.654;5.476;2023-02-16T04:17:33;52.88;;;23.25;;
72920;SDS011;61064;51.654;5.476;2023-02-16T04:19:59;49.13;;;23.73;;
72920;SDS011;61064;51.654;5.476;2023-02-16T04:22:24;47.20;;;22.27;;
72920;SDS011;61064;51.654;5.476;2023-02-16T04:24:50;50.90;;;23.27;;
72920;SDS011;61064;51.654;5.476;2023-02-16T04:27:15;51.40;;;22.90;;
72920;SDS011;61064;51.654;5.476;2023-02-16T04:29:41;51.00;;;23.50;;
72920;SDS011;61064;51.654;5.476;2023-02-16T04:32:06;52.20;;;23.07;;
72920;SDS011;61064;51.654;5.476;2023-02-16T04:34:31;51.70;;;22.90;;
72920;SDS011;61064;51.654;5.476;2023-02-16T04:36:57;46.77;;;22.13;;
72920;SDS011;61064;51.654;5.476;2023-02-16T04:39:22;51.70;;;23.77;;
72920;SDS011;61064;51.654;5.476;2023-02-16T04:41:48;50.13;;;22.83;;
72920;SDS011;61064;51.654;5.476;2023-02-16T04:44:13;51.43;;;23.33;;
72920;SDS011;61064;51.654;5.476;2023-02-16T04:46:39;48.37;;;23.07;;
72920;SDS011;61064;51.654;5.476;2023-02-16T04:49:04;48.47;;;22.83;;
72920;SDS011;61064;51.654;5.476;2023-02-16T04:51:30;55.53;;;24.13;;
72920;SDS011;61064;51.654;5.476;2023-02-16T04:53:55;52.43;;;22.97;;
72920;SDS011;61064;51.654;5.476;2023-02-16T04:56:21;55.47;;;23.80;;
72920;SDS011;61064;51.654;5.476;2023-02-16T04:58:47;53.00;;;23.13;;
72920;SDS011;61064;51.654;5.476;2023-02-16T05:01:18;50.33;;;22.57;;
72920;SDS011;61064;51.654;5.476;2023-02-16T05:03:45;50.13;;;23.70;;
72920;SDS011;61064;51.654;5.476;2023-02-16T05:06:11;56.27;;;24.23;;
72920;SDS011;61064;51.654;5.476;2023-02-16T05:08:36;50.53;;;23.63;;
72920;SDS011;61064;51.654;5.476;2023-02-16T05:11:01;54.33;;;23.03;;
72920;SDS011;61064;51.654;5.476;2023-02-16T05:13:46;52.95;;;24.27;;
72920;SDS011;61064;51.654;5.476;2023-02-16T05:16:30;50.50;;;23.15;;
72920;SDS011;61064;51.654;5.476;2023-02-16T05:18:56;49.17;;;23.53;;
72920;SDS011;61064;51.654;5.476;2023-02-16T05:21:21;50.75;;;23.98;;
72920;SDS011;61064;51.654;5.476;2023-02-16T05:23:59;53.45;;;23.80;;
72920;SDS011;61064;51.654;5.476;2023-02-16T05:26:26;55.00;;;23.20;;
72920;SDS011;61064;51.654;5.476;2023-02-16T05:28:52;51.10;;;23.80;;
72920;SDS011;61064;51.654;5.476;2023-02-16T05:31:18;53.92;;;23.08;;
72920;SDS011;61064;51.654;5.476;2023-02-16T05:33:43;52.37;;;22.77;;
72920;SDS011;61064;51.654;5.476;2023-02-16T05:36:09;47.97;;;23.07;;
72920;SDS011;61064;51.654;5.476;2023-02-16T05:38:34;51.57;;;23.00;;
72920;SDS011;61064;51.654;5.476;2023-02-16T05:40:59;50.77;;;22.30;;
72920;SDS011;61064;51.654;5.476;2023-02-16T05:43:25;51.50;;;23.43;;
72920;SDS011;61064;51.654;5.476;2023-02-16T05:45:50;50.60;;;22.27;;
72920;SDS011;61064;51.654;5.476;2023-02-16T05:48:16;51.40;;;23.65;;
72920;SDS011;61064;51.654;5.476;2023-02-16T05:50:41;54.70;;;22.93;;
72920;SDS011;61064;51.654;5.476;2023-02-16T05:53:06;49.90;;;23.63;;
72920;SDS011;61064;51.654;5.476;2023-02-16T05:55:32;52.10;;;22.47;;
72920;SDS011;61064;51.654;5.476;2023-02-16T05:57:57;50.20;;;23.23;;
72920;SDS011;61064;51.654;5.476;2023-02-16T06:00:23;50.03;;;23.13;;
72920;SDS011;61064;51.654;5.476;2023-02-16T06:02:48;51.85;;;23.45;;
72920;SDS011;61064;51.654;5.476;2023-02-16T06:05:13;50.13;;;21.77;;
72920;SDS011;61064;51.654;5.476;2023-02-16T06:07:39;47.87;;;23.53;;
72920;SDS011;61064;51.654;5.476;2023-02-16T06:10:04;48.23;;;22.97;;
72920;SDS011;61064;51.654;5.476;2023-02-16T06:12:31;50.60;;;22.67;;
72920;SDS011;61064;51.654;5.476;2023-02-16T06:14:58;48.17;;;22.23;;
72920;SDS011;61064;51.654;5.476;2023-02-16T06:17:24;47.97;;;22.83;;
72920;SDS011;61064;51.654;5.476;2023-02-16T06:19:50;49.33;;;23.37;;
72920;SDS011;61064;51.654;5.476;2023-02-16T06:22:15;48.73;;;23.17;;
72920;SDS011;61064;51.654;5.476;2023-02-16T06:24:41;49.13;;;23.67;;
72920;SDS011;61064;51.654;5.476;2023-02-16T06:27:06;48.20;;;22.53;;
72920;SDS011;61064;51.654;5.476;2023-02-16T06:29:31;45.80;;;21.88;;
72920;SDS011;61064;51.654;5.476;2023-02-16T06:31:57;50.83;;;23.47;;
72920;SDS011;61064;51.654;5.476;2023-02-16T06:34:22;52.63;;;23.27;;
72920;SDS011;61064;51.654;5.476;2023-02-16T06:36:48;51.53;;;23.23;;
72920;SDS011;61064;51.654;5.476;2023-02-16T06:39:13;49.43;;;23.27;;
72920;SDS011;61064;51.654;5.476;2023-02-16T06:41:39;49.90;;;23.23;;
72920;SDS011;61064;51.654;5.476;2023-02-16T06:44:08;46.97;;;22.73;;
72920;SDS011;61064;51.654;5.476;2023-02-16T06:46:38;48.85;;;22.83;;
72920;SDS011;61064;51.654;5.476;2023-02-16T06:49:04;53.92;;;23.65;;
72920;SDS011;61064;51.654;5.476;2023-02-16T06:51:30;43.87;;;21.07;;
72920;SDS011;61064;51.654;5.476;2023-02-16T06:53:56;50.10;;;23.13;;
72920;SDS011;61064;51.654;5.476;2023-02-16T06:56:22;51.28;;;22.48;;
72920;SDS011;61064;51.654;5.476;2023-02-16T06:58:48;46.33;;;21.50;;
72920;SDS011;61064;51.654;5.476;2023-02-16T07:01:13;46.63;;;21.73;;
72920;SDS011;61064;51.654;5.476;2023-02-16T07:03:39;47.43;;;22.37;;
72920;SDS011;61064;51.654;5.476;2023-02-16T07:06:04;48.90;;;22.27;;
72920;SDS011;61064;51.654;5.476;2023-02-16T07:08:30;43.00;;;21.33;;
72920;SDS011;61064;51.654;5.476;2023-02-16T07:10:56;42.67;;;21.27;;
72920;SDS011;61064;51.654;5.476;2023-02-16T07:13:21;41.37;;;21.10;;
72920;SDS011;61064;51.654;5.476;2023-02-16T07:15:47;44.78;;;21.55;;
72920;SDS011;61064;51.654;5.476;2023-02-16T07:18:12;45.33;;;20.87;;
72920;SDS011;61064;51.654;5.476;2023-02-16T07:20:37;46.07;;;21.50;;
72920;SDS011;61064;51.654;5.476;2023-02-16T07:23:03;45.65;;;21.45;;
72920;SDS011;61064;51.654;5.476;2023-02-16T07:25:31;46.53;;;21.93;;
72920;SDS011;61064;51.654;5.476;2023-02-16T07:27:57;44.53;;;21.33;;
72920;SDS011;61064;51.654;5.476;2023-02-16T07:30:23;45.80;;;21.47;;
72920;SDS011;61064;51.654;5.476;2023-02-16T07:32:48;45.33;;;21.15;;
72920;SDS011;61064;51.654;5.476;2023-02-16T07:35:13;44.60;;;21.17;;
72920;SDS011;61064;51.654;5.476;2023-02-16T07:37:39;44.00;;;20.87;;
72920;SDS011;61064;51.654;5.476;2023-02-16T07:40:05;46.47;;;21.40;;
72920;SDS011;61064;51.654;5.476;2023-02-16T07:42:31;47.28;;;20.98;;
72920;SDS011;61064;51.654;5.476;2023-02-16T07:44:57;44.20;;;20.95;;
72920;SDS011;61064;51.654;5.476;2023-02-16T07:47:23;44.77;;;21.87;;
72920;SDS011;61064;51.654;5.476;2023-02-16T07:49:48;41.33;;;21.00;;
72920;SDS011;61064;51.654;5.476;2023-02-16T07:52:14;43.80;;;21.10;;
72920;SDS011;61064;51.654;5.476;2023-02-16T07:54:39;43.03;;;21.00;;
72920;SDS011;61064;51.654;5.476;2023-02-16T07:57:05;43.23;;;21.17;;
72920;SDS011;61064;51.654;5.476;2023-02-16T07:59:30;42.72;;;20.95;;
72920;SDS011;61064;51.654;5.476;2023-02-16T08:01:55;46.50;;;21.73;;
72920;SDS011;61064;51.654;5.476;2023-02-16T08:04:21;40.90;;;20.07;;
72920;SDS011;61064;51.654;5.476;2023-02-16T08:06:46;43.57;;;20.73;;
72920;SDS011;61064;51.654;5.476;2023-02-16T08:09:13;43.17;;;20.67;;
72920;SDS011;61064;51.654;5.476;2023-02-16T08:11:39;43.25;;;20.90;;
72920;SDS011;61064;51.654;5.476;2023-02-16T08:14:05;43.00;;;20.52;;
72920;SDS011;61064;51.654;5.476;2023-02-16T08:16:30;43.00;;;21.43;;
72920;SDS011;61064;51.654;5.476;2023-02-16T08:18:56;42.63;;;20.23;;
72920;SDS011;61064;51.654;5.476;2023-02-16T08:21:23;41.97;;;20.58;;
72920;SDS011;61064;51.654;5.476;2023-02-16T08:23:52;44.90;;;21.20;;
72920;SDS011;61064;51.654;5.476;2023-02-16T08:26:20;42.90;;;20.37;;
72920;SDS011;61064;51.654;5.476;2023-02-16T08:28:47;41.88;;;20.23;;
72920;SDS011;61064;51.654;5.476;2023-02-16T08:31:18;45.63;;;21.88;;
72920;SDS011;61064;51.654;5.476;2023-02-16T08:33:46;42.72;;;20.02;;
72920;SDS011;61064;51.654;5.476;2023-02-16T08:36:20;44.03;;;21.10;;
72920;SDS011;61064;51.654;5.476;2023-02-16T08:38:47;41.17;;;20.07;;
72920;SDS011;61064;51.654;5.476;2023-02-16T08:41:17;42.97;;;20.67;;
72920;SDS011;61064;51.654;5.476;2023-02-16T08:43:43;41.63;;;19.30;;
72920;SDS011;61064;51.654;5.476;2023-02-16T08:46:09;41.45;;;20.70;;
72920;SDS011;61064;51.654;5.476;2023-02-16T08:48:35;41.90;;;20.40;;
72920;SDS011;61064;51.654;5.476;2023-02-16T08:51:01;41.33;;;19.95;;
72920;SDS011;61064;51.654;5.476;2023-02-16T08:53:27;46.40;;;20.30;;
72920;SDS011;61064;51.654;5.476;2023-02-16T08:55:57;42.65;;;20.05;;
72920;SDS011;61064;51.654;5.476;2023-02-16T08:58:23;40.50;;;20.05;;
72920;SDS011;61064;51.654;5.476;2023-02-16T09:00:51;39.88;;;20.38;;
72920;SDS011;61064;51.654;5.476;2023-02-16T09:03:16;39.33;;;19.50;;
72920;SDS011;61064;51.654;5.476;2023-02-16T09:05:45;40.00;;;19.00;;
72920;SDS011;61064;51.654;5.476;2023-02-16T09:08:12;38.58;;;19.52;;
72920;SDS011;61064;51.654;5.476;2023-02-16T09:10:39;36.92;;;19.08;;
72920;SDS011;61064;51.654;5.476;2023-02-16T09:13:04;41.13;;;19.87;;
72920;SDS011;61064;51.654;5.476;2023-02-16T09:15:33;38.97;;;19.38;;
72920;SDS011;61064;51.654;5.476;2023-02-16T09:17:58;42.03;;;19.75;;
72920;SDS011;61064;51.654;5.476;2023-02-16T09:20:24;39.20;;;20.07;;
72920;SDS011;61064;51.654;5.476;2023-02-16T09:22:51;40.25;;;19.55;;
72920;SDS011;61064;51.654;5.476;2023-02-16T09:25:17;41.97;;;20.17;;
72920;SDS011;61064;51.654;5.476;2023-02-16T09:27:42;38.07;;;20.07;;
72920;SDS011;61064;51.654;5.476;2023-02-16T09:30:07;39.13;;;19.33;;
72920;SDS011;61064;51.654;5.476;2023-02-16T09:32:34;37.70;;;19.93;;
72920;SDS011;61064;51.654;5.476;2023-02-16T09:35:00;36.55;;;19.02;;
72920;SDS011;61064;51.654;5.476;2023-02-16T09:37:26;41.20;;;20.88;;
72920;SDS011;61064;51.654;5.476;2023-02-16T09:39:51;39.47;;;19.80;;
72920;SDS011;61064;51.654;5.476;2023-02-16T09:47:37;43.10;;;20.40;;
72920;SDS011;61064;51.654;5.476;2023-02-16T09:53:23;39.60;;;20.30;;
72920;SDS011;61064;51.654;5.476;2023-02-16T09:55:37;38.33;;;19.60;;
72920;SDS011;61064;51.654;5.476;2023-02-16T09:58:21;43.17;;;21.63;;
72920;SDS011;61064;51.654;5.476;2023-02-16T10:04:10;39.30;;;20.48;;
72920;SDS011;61064;51.654;5.476;2023-02-16T10:09:35;37.83;;;20.75;;
72920;SDS011;61064;51.654;5.476;2023-02-16T10:12:04;44.20;;;21.48;;
72920;SDS011;61064;51.654;5.476;2023-02-16T10:14:46;44.57;;;21.97;;
72920;SDS011;61064;51.654;5.476;2023-02-16T10:20:01;42.90;;;20.98;;
72920;SDS011;61064;51.654;5.476;2023-02-16T10:22:41;43.35;;;21.27;;
72920;SDS011;61064;51.654;5.476;2023-02-16T10:25:19;42.25;;;20.98;;
72920;SDS011;61064;51.654;5.476;2023-02-16T10:27:51;43.03;;;20.77;;
72920;SDS011;61064;51.654;5.476;2023-02-16T10:30:27;42.35;;;21.27;;
72920;SDS011;61064;51.654;5.476;2023-02-16T10:32:56;43.67;;;21.90;;
72920;SDS011;61064;51.654;5.476;2023-02-16T10:38:35;43.47;;;21.67;;
72920;SDS011;61064;51.654;5.476;2023-02-16T10:41:06;44.37;;;20.83;;
72920;SDS011;61064;51.654;5.476;2023-02-16T10:44:10;45.55;;;21.40;;
72920;SDS011;61064;51.654;5.476;2023-02-16T10:46:44;40.60;;;21.92;;
72920;SDS011;61064;51.654;5.476;2023-02-16T10:49:13;44.20;;;21.90;;
72920;SDS011;61064;51.654;5.476;2023-02-16T10:51:40;42.78;;;21.90;;
72920;SDS011;61064;51.654;5.476;2023-02-16T10:54:11;43.17;;;22.30;;
72920;SDS011;61064;51.654;5.476;2023-02-16T11:01:57;43.90;;;22.33;;
72920;SDS011;61064;51.654;5.476;2023-02-16T11:04:33;46.30;;;23.08;;
72920;SDS011;61064;51.654;5.476;2023-02-16T11:07:09;41.87;;;21.90;;
72920;SDS011;61064;51.654;5.476;2023-02-16T11:09:36;46.90;;;22.77;;
72920;SDS011;61064;51.654;5.476;2023-02-16T11:12:15;50.78;;;23.60;;
72920;SDS011;61064;51.654;5.476;2023-02-16T11:14:50;46.53;;;22.77;;
72920;SDS011;61064;51.654;5.476;2023-02-16T11:17:18;42.88;;;22.45;;
72920;SDS011;61064;51.654;5.476;2023-02-16T11:19:53;47.90;;;22.93;;
72920;SDS011;61064;51.654;5.476;2023-02-16T11:22:33;48.65;;;22.90;;
72920;SDS011;61064;51.654;5.476;2023-02-16T11:27:49;46.30;;;23.48;;
72920;SDS011;61064;51.654;5.476;2023-02-16T11:30:35;48.50;;;23.45;;
72920;SDS011;61064;51.654;5.476;2023-02-16T11:33:04;50.53;;;22.87;;
72920;SDS011;61064;51.654;5.476;2023-02-16T11:35:55;46.08;;;23.13;;
72920;SDS011;61064;51.654;5.476;2023-02-16T11:38:25;48.58;;;24.05;;
72920;SDS011;61064;51.654;5.476;2023-02-16T11:40:56;48.10;;;22.53;;
72920;SDS011;61064;51.654;5.476;2023-02-16T11:43:25;47.28;;;23.52;;
72920;SDS011;61064;51.654;5.476;2023-02-16T11:45:57;51.05;;;23.92;;
72920;SDS011;61064;51.654;5.476;2023-02-16T11:48:29;49.63;;;23.05;;
72920;SDS011;61064;51.654;5.476;2023-02-16T11:51:00;47.60;;;23.13;;
72920;SDS011;61064;51.654;5.476;2023-02-16T11:53:31;49.63;;;22.47;;
72920;SDS011;61064;51.654;5.476;2023-02-16T12:07:49;45.10;;;22.50;;
72920;SDS011;61064;51.654;5.476;2023-02-16T12:30:11;43.47;;;21.10;;
72920;SDS011;61064;51.654;5.476;2023-02-16T12:38:23;42.20;;;21.33;;
72920;SDS011;61064;51.654;5.476;2023-02-16T12:43:53;38.55;;;19.77;;
72920;SDS011;61064;51.654;5.476;2023-02-16T12:46:25;40.85;;;20.45;;
72920;SDS011;61064;51.654;5.476;2023-02-16T12:52:02;40.25;;;19.02;;
72920;SDS011;61064;51.654;5.476;2023-02-16T12:54:39;36.47;;;19.83;;
72920;SDS011;61064;51.654;5.476;2023-02-16T12:57:15;35.35;;;18.83;;
72920;SDS011;61064;51.654;5.476;2023-02-16T12:59:48;34.85;;;17.85;;
72920;SDS011;61064;51.654;5.476;2023-02-16T13:05:30;33.45;;;17.58;;
72920;SDS011;61064;51.654;5.476;2023-02-16T13:08:04;34.88;;;18.45;;
72920;SDS011;61064;51.654;5.476;2023-02-16T13:11:02;36.75;;;18.30;;
72920;SDS011;61064;51.654;5.476;2023-02-16T13:13:48;35.97;;;17.65;;
72920;SDS011;61064;51.654;5.476;2023-02-16T13:16:18;29.40;;;16.00;;
72920;SDS011;61064;51.654;5.476;2023-02-16T13:18:50;35.97;;;17.35;;
72920;SDS011;61064;51.654;5.476;2023-02-16T13:27:05;29.35;;;15.60;;
72920;SDS011;61064;51.654;5.476;2023-02-16T13:35:16;28.42;;;14.65;;
72920;SDS011;61064;51.654;5.476;2023-02-16T13:40:38;30.80;;;14.13;;
72920;SDS011;61064;51.654;5.476;2023-02-16T13:45:54;29.80;;;14.45;;
72920;SDS011;61064;51.654;5.476;2023-02-16T13:51:14;28.35;;;14.88;;
72920;SDS011;61064;51.654;5.476;2023-02-16T13:53:48;26.88;;;14.68;;
72920;SDS011;61064;51.654;5.476;2023-02-16T14:01:43;29.52;;;14.65;;
72920;SDS011;61064;51.654;5.476;2023-02-16T14:06:49;28.05;;;14.63;;
72920;SDS011;61064;51.654;5.476;2023-02-16T14:16:50;27.92;;;13.88;;
72920;SDS011;61064;51.654;5.476;2023-02-16T14:19:16;28.67;;;14.40;;
72920;SDS011;61064;51.654;5.476;2023-02-16T14:21:46;26.65;;;14.05;;
72920;SDS011;61064;51.654;5.476;2023-02-16T14:24:32;24.92;;;13.40;;
72920;SDS011;61064;51.654;5.476;2023-02-16T14:27:05;25.92;;;14.15;;
72920;SDS011;61064;51.654;5.476;2023-02-16T14:29:39;28.42;;;14.55;;
72920;SDS011;61064;51.654;5.476;2023-02-16T14:34:38;26.50;;;13.52;;
72920;SDS011;61064;51.654;5.476;2023-02-16T14:39:42;25.92;;;13.13;;
72920;SDS011;61064;51.654;5.476;2023-02-16T14:42:13;26.77;;;13.57;;
72920;SDS011;61064;51.654;5.476;2023-02-16T14:48:12;22.73;;;10.93;;
72920;SDS011;61064;51.654;5.476;2023-02-16T14:56:29;22.77;;;10.77;;
72920;SDS011;61064;51.654;5.476;2023-02-16T14:59:16;21.33;;;11.63;;
72920;SDS011;61064;51.654;5.476;2023-02-16T15:01:42;22.00;;;11.55;;
72920;SDS011;61064;51.654;5.476;2023-02-16T15:04:09;23.42;;;12.00;;
72920;SDS011;61064;51.654;5.476;2023-02-16T15:06:37;26.83;;;11.88;;
72920;SDS011;61064;51.654;5.476;2023-02-16T15:11:40;25.80;;;12.07;;
72920;SDS011;61064;51.654;5.476;2023-02-16T15:14:35;23.48;;;12.05;;
72920;SDS011;61064;51.654;5.476;2023-02-16T15:17:06;24.48;;;11.55;;
72920;SDS011;61064;51.654;5.476;2023-02-16T15:19:34;23.02;;;11.50;;
72920;SDS011;61064;51.654;5.476;2023-02-16T15:24:56;23.30;;;11.93;;
72920;SDS011;61064;51.654;5.476;2023-02-16T15:27:27;23.63;;;12.40;;
72920;SDS011;61064;51.654;5.476;2023-02-16T15:32:33;24.17;;;13.18;;
72920;SDS011;61064;51.654;5.476;2023-02-16T15:35:07;24.33;;;11.83;;
72920;SDS011;61064;51.654;5.476;2023-02-16T15:37:37;22.85;;;11.68;;
72920;SDS011;61064;51.654;5.476;2023-02-16T15:40:14;22.80;;;11.98;;
72920;SDS011;61064;51.654;5.476;2023-02-16T15:42:48;24.07;;;11.90;;
72920;SDS011;61064;51.654;5.476;2023-02-16T15:45:27;24.25;;;11.32;;
72920;SDS011;61064;51.654;5.476;2023-02-16T15:56:04;25.07;;;12.50;;
72920;SDS011;61064;51.654;5.476;2023-02-16T15:58:41;22.58;;;12.15;;
72920;SDS011;61064;51.654;5.476;2023-02-16T16:01:06;24.33;;;12.30;;
72920;SDS011;61064;51.654;5.476;2023-02-16T16:03:34;23.98;;;12.13;;
72920;SDS011;61064;51.654;5.476;2023-02-16T16:06:03;23.05;;;11.93;;
72920;SDS011;61064;51.654;5.476;2023-02-16T16:08:30;24.43;;;12.07;;
72920;SDS011;61064;51.654;5.476;2023-02-16T16:10:56;30.05;;;12.65;;
72920;SDS011;61064;51.654;5.476;2023-02-16T16:13:23;24.35;;;12.32;;
72920;SDS011;61064;51.654;5.476;2023-02-16T16:15:52;25.27;;;13.15;;
72920;SDS011;61064;51.654;5.476;2023-02-16T16:18:34;24.63;;;13.35;;
72920;SDS011;61064;51.654;5.476;2023-02-16T16:21:09;26.53;;;13.20;;
72920;SDS011;61064;51.654;5.476;2023-02-16T16:23:37;24.35;;;12.55;;
72920;SDS011;61064;51.654;5.476;2023-02-16T16:26:14;24.98;;;13.13;;
72920;SDS011;61064;51.654;5.476;2023-02-16T16:28:46;25.40;;;13.27;;
72920;SDS011;61064;51.654;5.476;2023-02-16T16:33:52;27.45;;;13.80;;
72920;SDS011;61064;51.654;5.476;2023-02-16T16:39:39;29.55;;;14.88;;
72920;SDS011;61064;51.654;5.476;2023-02-16T16:42:08;27.95;;;14.60;;
72920;SDS011;61064;51.654;5.476;2023-02-16T16:44:41;31.17;;;15.07;;
72920;SDS011;61064;51.654;5.476;2023-02-16T16:49:59;25.87;;;13.20;;
72920;SDS011;61064;51.654;5.476;2023-02-16T16:52:47;31.20;;;14.32;;
72920;SDS011;61064;51.654;5.476;2023-02-16T16:57:45;25.70;;;13.93;;
72920;SDS011;61064;51.654;5.476;2023-02-16T17:00:23;31.58;;;14.90;;
72920;SDS011;61064;51.654;5.476;2023-02-16T17:02:50;28.97;;;13.77;;
72920;SDS011;61064;51.654;5.476;2023-02-16T17:05:16;29.05;;;13.60;;
72920;SDS011;61064;51.654;5.476;2023-02-16T17:07:42;29.63;;;14.40;;
72920;SDS011;61064;51.654;5.476;2023-02-16T17:10:07;31.60;;;15.00;;
72920;SDS011;61064;51.654;5.476;2023-02-16T17:12:33;31.27;;;14.75;;
72920;SDS011;61064;51.654;5.476;2023-02-16T17:14:59;28.30;;;13.93;;
72920;SDS011;61064;51.654;5.476;2023-02-16T17:17:26;28.77;;;13.95;;
72920;SDS011;61064;51.654;5.476;2023-02-16T17:19:51;28.80;;;13.63;;
72920;SDS011;61064;51.654;5.476;2023-02-16T17:22:18;27.45;;;14.10;;
72920;SDS011;61064;51.654;5.476;2023-02-16T17:24:45;29.47;;;13.67;;
72920;SDS011;61064;51.654;5.476;2023-02-16T17:27:11;29.90;;;13.75;;
72920;SDS011;61064;51.654;5.476;2023-02-16T17:29:36;29.13;;;13.37;;